sensor_id;sensor_type;location;lat;lon;timestamp;pressure;altitude;pressure_sealevel;temperature;humidity
8069;BME280;4077;43.702;24.896;2023-08-24T00:01:25;99382.47;;;23.72;100.00
8069;BME280;4077;43.702;24.896;2023-08-24T00:03:51;99365.94;;;23.69;100.00
8069;BME280;4077;43.702;24.896;2023-08-24T00:06:17;99381.34;;;23.78;100.00
8069;BME280;4077;43.702;24.896;2023-08-24T00:08:43;99381.59;;;23.72;100.00
8069;BME280;4077;43.702;24.896;2023-08-24T00:11:09;99377.59;;;23.63;100.00
8069;BME280;4077;43.702;24.896;2023-08-24T00:13:42;99376.97;;;23.57;100.00
8069;BME280;4077;43.702;24.896;2023-08-24T00:16:18;99380.88;;;23.48;100.00
8069;BME280;4077;43.702;24.896;2023-08-24T00:18:44;99387.19;;;23.44;100.00
8069;BME280;4077;43.702;24.896;2023-08-24T00:21:11;99386.59;;;23.37;100.00
8069;BME280;4077;43.702;24.896;2023-08-24T00:23:37;99388.69;;;23.29;100.00
8069;BME280;4077;43.702;24.896;2023-08-24T00:26:02;99385.88;;;23.13;100.00
8069;BME280;4077;43.702;24.896;2023-08-24T00:28:28;99389.06;;;23.00;100.00
8069;BME280;4077;43.702;24.896;2023-08-24T00:30:53;99383.72;;;22.79;100.00
8069;BME280;4077;43.702;24.896;2023-08-24T00:33:19;99378.16;;;22.65;100.00
8069;BME280;4077;43.702;24.896;2023-08-24T00:35:44;99369.91;;;22.51;100.00
8069;BME280;4077;43.702;24.896;2023-08-24T00:38:10;99382.84;;;22.57;100.00
8069;BME280;4077;43.702;24.896;2023-08-24T00:40:36;99382.97;;;22.54;100.00
8069;BME280;4077;43.702;24.896;2023-08-24T00:43:01;99376.22;;;22.47;100.00
8069;BME280;4077;43.702;24.896;2023-08-24T00:45:27;99358.53;;;22.28;100.00
8069;BME280;4077;43.702;24.896;2023-08-24T00:47:52;99369.19;;;22.25;100.00
8069;BME280;4077;43.702;24.896;2023-08-24T00:50:18;99369.56;;;22.15;100.00
8069;BME280;4077;43.702;24.896;2023-08-24T00:52:45;99346.41;;;22.01;100.00
8069;BME280;4077;43.702;24.896;2023-08-24T00:55:12;99343.84;;;21.99;100.00
8069;BME280;4077;43.702;24.896;2023-08-24T00:57:39;99347.25;;;22.01;100.00
8069;BME280;4077;43.702;24.896;2023-08-24T01:00:06;99368.84;;;22.11;100.00
8069;BME280;4077;43.702;24.896;2023-08-24T01:02:35;99359.91;;;22.15;100.00
8069;BME280;4077;43.702;24.896;2023-08-24T01:05:00;99352.94;;;22.14;100.00
8069;BME280;4077;43.702;24.896;2023-08-24T01:07:26;99358.94;;;22.18;100.00
8069;BME280;4077;43.702;24.896;2023-08-24T01:09:52;99360.81;;;22.14;100.00
8069;BME280;4077;43.702;24.896;2023-08-24T01:18:10;99363.53;;;22.13;100.00
8069;BME280;4077;43.702;24.896;2023-08-24T01:20:37;99368.84;;;22.11;100.00
8069;BME280;4077;43.702;24.896;2023-08-24T01:23:32;99365.59;;;22.03;100.00
8069;BME280;4077;43.702;24.896;2023-08-24T01:26:07;99356.47;;;21.90;100.00
8069;BME280;4077;43.702;24.896;2023-08-24T01:28:33;99357.81;;;21.76;100.00
8069;BME280;4077;43.702;24.896;2023-08-24T01:30:59;99360.41;;;21.78;100.00
8069;BME280;4077;43.702;24.896;2023-08-24T01:33:25;99332.09;;;21.61;100.00
8069;BME280;4077;43.702;24.896;2023-08-24T01:35:50;99360.50;;;21.75;100.00
8069;BME280;4077;43.702;24.896;2023-08-24T01:38:15;99353.66;;;21.71;100.00
8069;BME280;4077;43.702;24.896;2023-08-24T01:43:29;99365.81;;;21.73;100.00
8069;BME280;4077;43.702;24.896;2023-08-24T01:45:56;99365.22;;;21.65;100.00
8069;BME280;4077;43.702;24.896;2023-08-24T01:48:24;99362.81;;;21.59;100.00
8069;BME280;4077;43.702;24.896;2023-08-24T01:50:50;99361.91;;;21.60;100.00
8069;BME280;4077;43.702;24.896;2023-08-24T01:53:16;99361.25;;;21.53;100.00
8069;BME280;4077;43.702;24.896;2023-08-24T01:55:42;99353.66;;;21.46;100.00
8069;BME280;4077;43.702;24.896;2023-08-24T01:58:08;99353.84;;;21.41;100.00
8069;BME280;4077;43.702;24.896;2023-08-24T02:00:33;99347.75;;;21.39;100.00
8069;BME280;4077;43.702;24.896;2023-08-24T02:03:00;99349.44;;;21.42;100.00
8069;BME280;4077;43.702;24.896;2023-08-24T02:05:25;99339.88;;;21.39;100.00
8069;BME280;4077;43.702;24.896;2023-08-24T02:07:53;99332.97;;;21.37;100.00
8069;BME280;4077;43.702;24.896;2023-08-24T02:10:19;99336.41;;;21.39;100.00
8069;BME280;4077;43.702;24.896;2023-08-24T02:12:45;99334.69;;;21.38;100.00
8069;BME280;4077;43.702;24.896;2023-08-24T02:15:10;99336.53;;;21.36;100.00
8069;BME280;4077;43.702;24.896;2023-08-24T02:17:36;99341.84;;;21.33;100.00
8069;BME280;4077;43.702;24.896;2023-08-24T02:20:01;99338.75;;;21.21;100.00
8069;BME280;4077;43.702;24.896;2023-08-24T02:22:29;99343.28;;;21.16;100.00
8069;BME280;4077;43.702;24.896;2023-08-24T02:24:55;99333.13;;;21.06;100.00
8069;BME280;4077;43.702;24.896;2023-08-24T02:27:20;99342.78;;;21.05;100.00
8069;BME280;4077;43.702;24.896;2023-08-24T02:29:45;99346.09;;;21.10;100.00
8069;BME280;4077;43.702;24.896;2023-08-24T02:32:11;99346.22;;;21.07;100.00
8069;BME280;4077;43.702;24.896;2023-08-24T02:34:36;99347.16;;;21.04;100.00
8069;BME280;4077;43.702;24.896;2023-08-24T02:37:02;99344.72;;;21.00;100.00
8069;BME280;4077;43.702;24.896;2023-08-24T02:39:27;99344.16;;;20.90;100.00
8069;BME280;4077;43.702;24.896;2023-08-24T02:41:53;99344.47;;;20.81;100.00
8069;BME280;4077;43.702;24.896;2023-08-24T02:44:18;99331.88;;;20.64;100.00
8069;BME280;4077;43.702;24.896;2023-08-24T02:46:47;99333.50;;;20.68;100.00
8069;BME280;4077;43.702;24.896;2023-08-24T02:49:13;99331.06;;;20.62;100.00
8069;BME280;4077;43.702;24.896;2023-08-24T02:51:38;99337.03;;;20.67;100.00
8069;BME280;4077;43.702;24.896;2023-08-24T02:54:04;99339.66;;;20.67;100.00
8069;BME280;4077;43.702;24.896;2023-08-24T02:56:30;99330.97;;;20.65;100.00
8069;BME280;4077;43.702;24.896;2023-08-24T02:58:55;99337.03;;;20.67;100.00
8069;BME280;4077;43.702;24.896;2023-08-24T03:01:21;99336.00;;;20.73;100.00
8069;BME280;4077;43.702;24.896;2023-08-24T03:03:46;99334.16;;;20.75;100.00
8069;BME280;4077;43.702;24.896;2023-08-24T03:06:12;99330.88;;;20.68;100.00
8069;BME280;4077;43.702;24.896;2023-08-24T03:08:37;99337.84;;;20.69;100.00
8069;BME280;4077;43.702;24.896;2023-08-24T03:11:03;99333.50;;;20.68;100.00
8069;BME280;4077;43.702;24.896;2023-08-24T03:13:29;99362.09;;;20.76;100.00
8069;BME280;4077;43.702;24.896;2023-08-24T03:15:56;99364.50;;;20.56;100.00
8069;BME280;4077;43.702;24.896;2023-08-24T03:18:22;99334.06;;;20.50;100.00
8069;BME280;4077;43.702;24.896;2023-08-24T03:20:48;99362.78;;;20.83;100.00
8069;BME280;4077;43.702;24.896;2023-08-24T03:23:15;99366.00;;;20.91;100.00
8069;BME280;4077;43.702;24.896;2023-08-24T03:25:41;99364.03;;;20.97;100.00
8069;BME280;4077;43.702;24.896;2023-08-24T03:28:08;99369.06;;;21.03;100.00
8069;BME280;4077;43.702;24.896;2023-08-24T03:30:35;99363.09;;;21.00;100.00
8069;BME280;4077;43.702;24.896;2023-08-24T03:33:01;99367.03;;;20.87;100.00
8069;BME280;4077;43.702;24.896;2023-08-24T03:35:31;99380.88;;;20.90;100.00
8069;BME280;4077;43.702;24.896;2023-08-24T03:37:57;99360.25;;;20.80;100.00
8069;BME280;4077;43.702;24.896;2023-08-24T03:40:23;99362.06;;;20.77;100.00
8069;BME280;4077;43.702;24.896;2023-08-24T03:42:49;99358.81;;;20.69;100.00
8069;BME280;4077;43.702;24.896;2023-08-24T03:45:15;99375.34;;;20.73;100.00
8069;BME280;4077;43.702;24.896;2023-08-24T03:47:40;99391.75;;;20.50;100.00
8069;BME280;4077;43.702;24.896;2023-08-24T03:50:06;99380.56;;;20.43;100.00
8069;BME280;4077;43.702;24.896;2023-08-24T03:52:31;99383.22;;;20.71;100.00
8069;BME280;4077;43.702;24.896;2023-08-24T03:54:57;99375.03;;;20.82;100.00
8069;BME280;4077;43.702;24.896;2023-08-24T03:57:23;99374.66;;;20.93;100.00
8069;BME280;4077;43.702;24.896;2023-08-24T03:59:48;99357.25;;;20.90;100.00
8069;BME280;4077;43.702;24.896;2023-08-24T04:02:14;99359.63;;;20.98;100.00
8069;BME280;4077;43.702;24.896;2023-08-24T04:04:40;99376.91;;;21.05;100.00
8069;BME280;4077;43.702;24.896;2023-08-24T04:07:05;99394.88;;;21.17;100.00
8069;BME280;4077;43.702;24.896;2023-08-24T04:09:30;99394.66;;;21.23;100.00
8069;BME280;4077;43.702;24.896;2023-08-24T04:11:56;99393.63;;;21.29;100.00
8069;BME280;4077;43.702;24.896;2023-08-24T04:14:21;99394.50;;;21.29;100.00
8069;BME280;4077;43.702;24.896;2023-08-24T04:16:47;99382.16;;;21.05;100.00
8069;BME280;4077;43.702;24.896;2023-08-24T04:19:12;99388.22;;;21.07;100.00
8069;BME280;4077;43.702;24.896;2023-08-24T04:21:38;99396.22;;;21.30;100.00
8069;BME280;4077;43.702;24.896;2023-08-24T04:24:04;99409.84;;;21.42;100.00
8069;BME280;4077;43.702;24.896;2023-08-24T04:26:30;99387.09;;;21.41;100.00
8069;BME280;4077;43.702;24.896;2023-08-24T04:28:56;99404.59;;;21.42;100.00
8069;BME280;4077;43.702;24.896;2023-08-24T04:31:21;99413.47;;;21.38;100.00
8069;BME280;4077;43.702;24.896;2023-08-24T04:33:46;99410.56;;;21.19;100.00
8069;BME280;4077;43.702;24.896;2023-08-24T04:36:12;99407.06;;;21.18;100.00
8069;BME280;4077;43.702;24.896;2023-08-24T04:38:37;99420.75;;;21.29;100.00
8069;BME280;4077;43.702;24.896;2023-08-24T04:41:03;99425.03;;;21.32;100.00
8069;BME280;4077;43.702;24.896;2023-08-24T04:43:32;99420.56;;;21.36;100.00
8069;BME280;4077;43.702;24.896;2023-08-24T04:45:58;99424.69;;;21.43;100.00
8069;BME280;4077;43.702;24.896;2023-08-24T04:48:24;99427.91;;;21.51;100.00
8069;BME280;4077;43.702;24.896;2023-08-24T04:50:51;99411.44;;;21.46;100.00
8069;BME280;4077;43.702;24.896;2023-08-24T04:53:18;99421.41;;;21.61;100.00
8069;BME280;4077;43.702;24.896;2023-08-24T04:55:44;99419.59;;;21.63;100.00
8069;BME280;4077;43.702;24.896;2023-08-24T04:58:10;99418.78;;;21.86;100.00
8069;BME280;4077;43.702;24.896;2023-08-24T05:00:36;99428.94;;;21.97;100.00
8069;BME280;4077;43.702;24.896;2023-08-24T05:03:03;99426.97;;;22.02;100.00
8069;BME280;4077;43.702;24.896;2023-08-24T05:05:30;99435.25;;;22.16;100.00
8069;BME280;4077;43.702;24.896;2023-08-24T05:07:56;99419.72;;;22.10;100.00
8069;BME280;4077;43.702;24.896;2023-08-24T05:10:22;99427.94;;;21.99;100.00
8069;BME280;4077;43.702;24.896;2023-08-24T05:12:47;99433.31;;;21.96;100.00
8069;BME280;4077;43.702;24.896;2023-08-24T05:15:13;99447.91;;;22.05;100.00
8069;BME280;4077;43.702;24.896;2023-08-24T05:17:39;99450.06;;;22.19;100.00
8069;BME280;4077;43.702;24.896;2023-08-24T05:20:08;99460.50;;;22.44;100.00
8069;BME280;4077;43.702;24.896;2023-08-24T05:22:37;99460.41;;;22.47;100.00
8069;BME280;4077;43.702;24.896;2023-08-24T05:25:03;99462.69;;;22.56;100.00
8069;BME280;4077;43.702;24.896;2023-08-24T05:27:30;99450.09;;;22.64;100.00
8069;BME280;4077;43.702;24.896;2023-08-24T05:29:56;99457.41;;;22.79;100.00
8069;BME280;4077;43.702;24.896;2023-08-24T05:32:21;99448.03;;;22.96;100.00
8069;BME280;4077;43.702;24.896;2023-08-24T05:34:47;99455.84;;;23.19;100.00
8069;BME280;4077;43.702;24.896;2023-08-24T05:37:12;99446.75;;;23.26;100.00
8069;BME280;4077;43.702;24.896;2023-08-24T05:39:38;99461.03;;;23.42;100.00
8069;BME280;4077;43.702;24.896;2023-08-24T05:42:03;99458.84;;;23.52;100.00
8069;BME280;4077;43.702;24.896;2023-08-24T05:44:29;99455.81;;;23.63;100.00
8069;BME280;4077;43.702;24.896;2023-08-24T05:46:54;99451.72;;;23.76;100.00
8069;BME280;4077;43.702;24.896;2023-08-24T05:49:20;99459.75;;;23.93;100.00
8069;BME280;4077;43.702;24.896;2023-08-24T05:51:46;99464.34;;;24.09;100.00
8069;BME280;4077;43.702;24.896;2023-08-24T05:54:11;99469.06;;;24.21;100.00
8069;BME280;4077;43.702;24.896;2023-08-24T05:56:38;99465.00;;;24.34;100.00
8069;BME280;4077;43.702;24.896;2023-08-24T05:59:04;99464.44;;;24.46;100.00
8069;BME280;4077;43.702;24.896;2023-08-24T06:01:29;99459.16;;;24.46;100.00
8069;BME280;4077;43.702;24.896;2023-08-24T06:03:55;99466.31;;;24.44;100.00
8069;BME280;4077;43.702;24.896;2023-08-24T06:06:20;99457.31;;;24.28;100.00
8069;BME280;4077;43.702;24.896;2023-08-24T06:08:46;99460.13;;;24.25;100.00
8069;BME280;4077;43.702;24.896;2023-08-24T06:11:11;99451.72;;;24.36;100.00
8069;BME280;4077;43.702;24.896;2023-08-24T06:13:36;99463.44;;;24.68;100.00
8069;BME280;4077;43.702;24.896;2023-08-24T06:16:02;99464.13;;;24.90;100.00
8069;BME280;4077;43.702;24.896;2023-08-24T06:18:28;99470.72;;;25.00;100.00
8069;BME280;4077;43.702;24.896;2023-08-24T06:20:53;99469.00;;;24.99;100.00
8069;BME280;4077;43.702;24.896;2023-08-24T06:23:19;99464.88;;;24.94;100.00
8069;BME280;4077;43.702;24.896;2023-08-24T06:25:45;99484.81;;;25.18;100.00
8069;BME280;4077;43.702;24.896;2023-08-24T06:28:11;99478.50;;;25.40;100.00
8069;BME280;4077;43.702;24.896;2023-08-24T06:30:41;99482.19;;;25.54;100.00
8069;BME280;4077;43.702;24.896;2023-08-24T06:33:08;99476.41;;;25.63;100.00
8069;BME280;4077;43.702;24.896;2023-08-24T06:35:34;99484.41;;;25.81;100.00
8069;BME280;4077;43.702;24.896;2023-08-24T06:38:00;99486.16;;;25.98;100.00
8069;BME280;4077;43.702;24.896;2023-08-24T06:40:29;99487.59;;;26.21;100.00
8069;BME280;4077;43.702;24.896;2023-08-24T06:42:55;99486.81;;;26.36;100.00
8069;BME280;4077;43.702;24.896;2023-08-24T06:45:20;99493.75;;;26.54;100.00
8069;BME280;4077;43.702;24.896;2023-08-24T06:47:46;99481.03;;;26.45;100.00
8069;BME280;4077;43.702;24.896;2023-08-24T06:50:11;99496.25;;;26.57;100.00
8069;BME280;4077;43.702;24.896;2023-08-24T06:52:36;99500.53;;;26.76;100.00
8069;BME280;4077;43.702;24.896;2023-08-24T06:55:02;99503.13;;;26.93;100.00
8069;BME280;4077;43.702;24.896;2023-08-24T06:57:28;99459.03;;;26.92;100.00
8069;BME280;4077;43.702;24.896;2023-08-24T06:59:54;99510.97;;;27.42;99.80
8069;BME280;4077;43.702;24.896;2023-08-24T07:02:19;99505.63;;;27.73;95.62
8069;BME280;4077;43.702;24.896;2023-08-24T07:04:45;99489.16;;;27.83;96.28
8069;BME280;4077;43.702;24.896;2023-08-24T07:07:10;99508.66;;;28.26;91.97
8069;BME280;4077;43.702;24.896;2023-08-24T07:09:36;99504.16;;;28.56;88.85
8069;BME280;4077;43.702;24.896;2023-08-24T07:12:02;99508.75;;;28.96;87.97
8069;BME280;4077;43.702;24.896;2023-08-24T07:14:28;99513.47;;;29.19;84.04
8069;BME280;4077;43.702;24.896;2023-08-24T07:16:54;99522.25;;;29.34;83.52
8069;BME280;4077;43.702;24.896;2023-08-24T07:19:19;99509.19;;;29.16;85.71
8069;BME280;4077;43.702;24.896;2023-08-24T07:21:46;99517.25;;;29.15;84.76
8069;BME280;4077;43.702;24.896;2023-08-24T07:24:11;99523.44;;;29.15;82.98
8069;BME280;4077;43.702;24.896;2023-08-24T07:26:36;99529.06;;;29.11;83.20
8069;BME280;4077;43.702;24.896;2023-08-24T07:29:02;99534.09;;;29.01;82.37
8069;BME280;4077;43.702;24.896;2023-08-24T07:31:27;99522.97;;;29.09;81.99
8069;BME280;4077;43.702;24.896;2023-08-24T07:33:53;99531.63;;;29.12;80.61
8069;BME280;4077;43.702;24.896;2023-08-24T07:36:18;99531.31;;;29.17;80.04
8069;BME280;4077;43.702;24.896;2023-08-24T07:38:45;99520.38;;;29.22;81.45
8069;BME280;4077;43.702;24.896;2023-08-24T07:41:12;99524.44;;;29.27;81.72
8069;BME280;4077;43.702;24.896;2023-08-24T07:43:37;99519.53;;;29.21;82.38
8069;BME280;4077;43.702;24.896;2023-08-24T07:46:03;99517.72;;;29.49;82.19
8069;BME280;4077;43.702;24.896;2023-08-24T07:48:29;99515.91;;;29.76;79.64
8069;BME280;4077;43.702;24.896;2023-08-24T07:50:55;99513.16;;;29.90;78.71
8069;BME280;4077;43.702;24.896;2023-08-24T07:53:20;99515.09;;;30.01;76.67
8069;BME280;4077;43.702;24.896;2023-08-24T07:55:46;99504.22;;;29.79;75.62
8069;BME280;4077;43.702;24.896;2023-08-24T07:58:12;99515.50;;;29.82;77.01
8069;BME280;4077;43.702;24.896;2023-08-24T08:00:37;99513.47;;;29.73;77.03
8069;BME280;4077;43.702;24.896;2023-08-24T08:03:03;99504.19;;;29.66;76.90
8069;BME280;4077;43.702;24.896;2023-08-24T08:05:29;99513.88;;;29.67;76.46
8069;BME280;4077;43.702;24.896;2023-08-24T08:07:54;99508.53;;;29.67;77.65
8069;BME280;4077;43.702;24.896;2023-08-24T08:10:20;99501.63;;;29.77;76.36
8069;BME280;4077;43.702;24.896;2023-08-24T08:12:46;99511.69;;;29.86;76.55
8069;BME280;4077;43.702;24.896;2023-08-24T08:15:12;99512.09;;;29.80;75.31
8069;BME280;4077;43.702;24.896;2023-08-24T08:17:37;99504.53;;;29.74;75.55
8069;BME280;4077;43.702;24.896;2023-08-24T08:20:03;99495.34;;;29.78;75.40
8069;BME280;4077;43.702;24.896;2023-08-24T08:22:29;99508.47;;;29.81;76.39
8069;BME280;4077;43.702;24.896;2023-08-24T08:24:54;99497.09;;;29.79;75.69
8069;BME280;4077;43.702;24.896;2023-08-24T08:27:22;99505.59;;;29.84;74.55
8069;BME280;4077;43.702;24.896;2023-08-24T08:29:48;99504.44;;;29.88;74.05
8069;BME280;4077;43.702;24.896;2023-08-24T08:32:14;99501.22;;;29.83;75.34
8069;BME280;4077;43.702;24.896;2023-08-24T08:34:39;99493.78;;;29.49;76.59
8069;BME280;4077;43.702;24.896;2023-08-24T08:37:04;99505.84;;;29.54;78.54
8069;BME280;4077;43.702;24.896;2023-08-24T08:39:31;99495.91;;;29.83;80.45
8069;BME280;4077;43.702;24.896;2023-08-24T08:41:57;99502.09;;;29.96;79.59
8069;BME280;4077;43.702;24.896;2023-08-24T08:44:23;99497.31;;;30.02;76.56
8069;BME280;4077;43.702;24.896;2023-08-24T08:46:49;99497.00;;;29.93;76.05
8069;BME280;4077;43.702;24.896;2023-08-24T08:49:15;99493.16;;;29.97;77.81
8069;BME280;4077;43.702;24.896;2023-08-24T08:51:41;99495.06;;;29.95;74.25
8069;BME280;4077;43.702;24.896;2023-08-24T08:54:07;99502.78;;;30.13;73.47
8069;BME280;4077;43.702;24.896;2023-08-24T08:56:33;99500.44;;;30.21;72.98
8069;BME280;4077;43.702;24.896;2023-08-24T08:58:59;99495.44;;;30.29;71.87
8069;BME280;4077;43.702;24.896;2023-08-24T09:01:28;99487.97;;;30.34;72.95
8069;BME280;4077;43.702;24.896;2023-08-24T09:03:57;99479.75;;;30.37;72.22
8069;BME280;4077;43.702;24.896;2023-08-24T09:06:22;99496.16;;;30.44;72.24
8069;BME280;4077;43.702;24.896;2023-08-24T09:08:49;99481.25;;;30.41;71.12
8069;BME280;4077;43.702;24.896;2023-08-24T09:11:15;99486.59;;;30.41;70.85
8069;BME280;4077;43.702;24.896;2023-08-24T09:13:42;99469.94;;;30.50;69.99
8069;BME280;4077;43.702;24.896;2023-08-24T09:16:08;99489.31;;;30.78;69.36
8069;BME280;4077;43.702;24.896;2023-08-24T09:18:39;99486.59;;;30.91;67.23
8069;BME280;4077;43.702;24.896;2023-08-24T09:21:12;99491.38;;;30.98;66.75
8069;BME280;4077;43.702;24.896;2023-08-24T09:23:51;99491.38;;;30.98;67.03
8069;BME280;4077;43.702;24.896;2023-08-24T09:26:27;99490.94;;;31.04;66.41
8069;BME280;4077;43.702;24.896;2023-08-24T09:28:52;99491.31;;;31.24;65.84
8069;BME280;4077;43.702;24.896;2023-08-24T09:31:18;99486.53;;;31.40;65.17
8069;BME280;4077;43.702;24.896;2023-08-24T09:33:43;99488.19;;;31.89;64.06
8069;BME280;4077;43.702;24.896;2023-08-24T09:36:14;99498.25;;;32.88;62.80
8069;BME280;4077;43.702;24.896;2023-08-24T09:38:46;99512.94;;;34.22;59.17
8069;BME280;4077;43.702;24.896;2023-08-24T09:41:13;99508.13;;;34.77;55.51
8069;BME280;4077;43.702;24.896;2023-08-24T09:43:39;99509.94;;;35.26;54.69
8069;BME280;4077;43.702;24.896;2023-08-24T09:46:05;99506.75;;;35.42;53.52
8069;BME280;4077;43.702;24.896;2023-08-24T09:48:32;99505.97;;;35.01;53.76
8069;BME280;4077;43.702;24.896;2023-08-24T09:50:57;99494.78;;;34.56;54.70
8069;BME280;4077;43.702;24.896;2023-08-24T09:53:25;99484.91;;;33.63;56.22
8069;BME280;4077;43.702;24.896;2023-08-24T09:56:02;99465.81;;;33.13;57.55
8069;BME280;4077;43.702;24.896;2023-08-24T09:58:28;99470.88;;;32.73;58.49
8069;BME280;4077;43.702;24.896;2023-08-24T10:00:55;99471.97;;;32.59;57.51
8069;BME280;4077;43.702;24.896;2023-08-24T10:03:24;99453.03;;;32.29;58.28
8069;BME280;4077;43.702;24.896;2023-08-24T10:05:52;99451.31;;;32.05;59.86
8069;BME280;4077;43.702;24.896;2023-08-24T10:08:30;99452.78;;;32.09;60.20
8069;BME280;4077;43.702;24.896;2023-08-24T10:10:58;99446.97;;;32.38;58.10
8069;BME280;4077;43.702;24.896;2023-08-24T10:15:57;99442.69;;;32.24;58.38
8069;BME280;4077;43.702;24.896;2023-08-24T10:18:25;99427.75;;;32.10;59.98
8069;BME280;4077;43.702;24.896;2023-08-24T10:20:52;99435.03;;;32.31;58.92
8069;BME280;4077;43.702;24.896;2023-08-24T10:23:19;99422.16;;;32.25;58.71
8069;BME280;4077;43.702;24.896;2023-08-24T10:25:46;99411.59;;;32.23;59.19
8069;BME280;4077;43.702;24.896;2023-08-24T10:28:14;99421.09;;;32.38;58.56
8069;BME280;4077;43.702;24.896;2023-08-24T10:30:40;99421.94;;;32.39;58.87
8069;BME280;4077;43.702;24.896;2023-08-24T10:33:09;99421.72;;;32.53;58.73
8069;BME280;4077;43.702;24.896;2023-08-24T10:35:36;99419.22;;;32.73;58.09
8069;BME280;4077;43.702;24.896;2023-08-24T10:38:03;99409.28;;;32.75;56.81
8069;BME280;4077;43.702;24.896;2023-08-24T10:40:36;99406.94;;;32.81;57.88
8069;BME280;4077;43.702;24.896;2023-08-24T10:43:05;99406.09;;;32.92;56.58
8069;BME280;4077;43.702;24.896;2023-08-24T10:45:56;99404.06;;;33.16;55.57
8069;BME280;4077;43.702;24.896;2023-08-24T10:48:27;99402.06;;;33.30;55.37
8069;BME280;4077;43.702;24.896;2023-08-24T10:53:55;99393.03;;;33.10;55.34
8069;BME280;4077;43.702;24.896;2023-08-24T10:56:21;99389.16;;;33.03;55.72
8069;BME280;4077;43.702;24.896;2023-08-24T10:58:47;99383.47;;;33.49;55.86
8069;BME280;4077;43.702;24.896;2023-08-24T11:01:32;99388.91;;;33.89;54.07
8069;BME280;4077;43.702;24.896;2023-08-24T11:03:58;99383.13;;;34.05;52.14
8069;BME280;4077;43.702;24.896;2023-08-24T11:06:25;99387.94;;;34.11;52.33
8069;BME280;4077;43.702;24.896;2023-08-24T11:09:06;99378.69;;;34.25;51.99
8069;BME280;4077;43.702;24.896;2023-08-24T11:11:32;99377.25;;;34.31;50.83
8069;BME280;4077;43.702;24.896;2023-08-24T11:14:14;99373.34;;;34.35;50.47
8069;BME280;4077;43.702;24.896;2023-08-24T11:16:43;99361.56;;;34.47;51.53
8069;BME280;4077;43.702;24.896;2023-08-24T11:19:08;99355.19;;;34.48;51.10
8069;BME280;4077;43.702;24.896;2023-08-24T11:21:35;99340.41;;;34.53;51.13
8069;BME280;4077;43.702;24.896;2023-08-24T11:24:01;99334.19;;;34.53;52.47
8069;BME280;4077;43.702;24.896;2023-08-24T11:26:29;99334.78;;;34.66;52.00
8069;BME280;4077;43.702;24.896;2023-08-24T11:28:54;99329.41;;;34.76;51.71
8069;BME280;4077;43.702;24.896;2023-08-24T11:31:23;99327.44;;;34.68;50.61
8069;BME280;4077;43.702;24.896;2023-08-24T11:33:54;99316.66;;;34.39;51.88
8069;BME280;4077;43.702;24.896;2023-08-24T11:36:23;99314.34;;;33.85;53.74
8069;BME280;4077;43.702;24.896;2023-08-24T11:38:55;99303.00;;;34.02;52.28
8069;BME280;4077;43.702;24.896;2023-08-24T11:41:21;99305.59;;;34.23;52.49
8069;BME280;4077;43.702;24.896;2023-08-24T11:43:47;99299.53;;;34.11;53.47
8069;BME280;4077;43.702;24.896;2023-08-24T11:46:19;99303.34;;;34.28;52.47
8069;BME280;4077;43.702;24.896;2023-08-24T11:48:45;99304.63;;;34.34;50.12
8069;BME280;4077;43.702;24.896;2023-08-24T11:51:12;99303.34;;;34.18;52.11
8069;BME280;4077;43.702;24.896;2023-08-24T11:53:44;99293.56;;;34.08;52.53
8069;BME280;4077;43.702;24.896;2023-08-24T11:56:11;99297.28;;;34.26;51.45
8069;BME280;4077;43.702;24.896;2023-08-24T11:58:39;99289.75;;;34.00;52.03
8069;BME280;4077;43.702;24.896;2023-08-24T12:01:05;99293.44;;;34.09;50.40
8069;BME280;4077;43.702;24.896;2023-08-24T12:03:31;99288.81;;;34.11;51.75
8069;BME280;4077;43.702;24.896;2023-08-24T12:06:01;99290.34;;;34.23;50.99
8069;BME280;4077;43.702;24.896;2023-08-24T12:08:26;99296.31;;;34.27;51.93
8069;BME280;4077;43.702;24.896;2023-08-24T12:10:52;99284.72;;;34.26;51.79
8069;BME280;4077;43.702;24.896;2023-08-24T12:13:17;99297.41;;;34.24;49.04
8069;BME280;4077;43.702;24.896;2023-08-24T12:15:43;99288.66;;;34.13;50.25
8069;BME280;4077;43.702;24.896;2023-08-24T12:18:09;99280.31;;;34.16;48.84
8069;BME280;4077;43.702;24.896;2023-08-24T12:20:35;99281.63;;;34.21;49.01
8069;BME280;4077;43.702;24.896;2023-08-24T12:23:01;99258.88;;;34.06;48.45
8069;BME280;4077;43.702;24.896;2023-08-24T12:25:26;99266.94;;;34.16;49.33
8069;BME280;4077;43.702;24.896;2023-08-24T12:27:52;99267.63;;;34.08;47.90
8069;BME280;4077;43.702;24.896;2023-08-24T12:30:19;99262.56;;;34.05;47.78
8069;BME280;4077;43.702;24.896;2023-08-24T12:32:46;99270.59;;;34.05;47.91
8069;BME280;4077;43.702;24.896;2023-08-24T12:35:14;99262.66;;;34.04;45.87
8069;BME280;4077;43.702;24.896;2023-08-24T12:37:40;99256.16;;;33.96;45.72
8069;BME280;4077;43.702;24.896;2023-08-24T12:40:06;99245.03;;;33.91;45.75
8069;BME280;4077;43.702;24.896;2023-08-24T12:42:32;99255.91;;;33.99;46.10
8069;BME280;4077;43.702;24.896;2023-08-24T12:44:58;99264.94;;;34.08;45.69
8069;BME280;4077;43.702;24.896;2023-08-24T12:47:24;99258.75;;;34.08;44.96
8069;BME280;4077;43.702;24.896;2023-08-24T12:49:49;99251.69;;;34.07;45.51
8069;BME280;4077;43.702;24.896;2023-08-24T12:52:19;99252.81;;;34.04;45.52
8069;BME280;4077;43.702;24.896;2023-08-24T12:54:45;99256.91;;;34.08;45.23
8069;BME280;4077;43.702;24.896;2023-08-24T12:57:11;99251.28;;;34.11;45.56
8069;BME280;4077;43.702;24.896;2023-08-24T12:59:36;99255.66;;;34.12;44.55
8069;BME280;4077;43.702;24.896;2023-08-24T13:02:01;99254.50;;;34.05;45.67
8069;BME280;4077;43.702;24.896;2023-08-24T13:04:27;99255.50;;;34.04;45.21
8069;BME280;4077;43.702;24.896;2023-08-24T13:06:57;99236.72;;;33.94;45.03
8069;BME280;4077;43.702;24.896;2023-08-24T13:09:23;99248.16;;;34.06;45.01
8069;BME280;4077;43.702;24.896;2023-08-24T13:11:49;99252.84;;;34.14;45.00
8069;BME280;4077;43.702;24.896;2023-08-24T13:14:14;99238.69;;;34.02;45.27
8069;BME280;4077;43.702;24.896;2023-08-24T13:16:40;99228.63;;;33.85;46.77